createdAt,value
2022-10-28T00:01:07.968Z,14.10
2022-10-28T00:03:39.667Z,14.10
2022-10-28T00:06:10.018Z,14.20
2022-10-28T00:08:38.708Z,14.20
2022-10-28T00:11:08.220Z,14.20
2022-10-28T00:13:37.930Z,14.30
2022-10-28T00:16:08.370Z,14.30
2022-10-28T00:18:36.769Z,14.40
2022-10-28T00:21:06.460Z,14.40
2022-10-28T00:23:34.779Z,14.40
2022-10-28T00:26:07.731Z,14.40
2022-10-28T00:28:40.718Z,14.40
2022-10-28T00:31:10.268Z,14.50
2022-10-28T00:33:39.315Z,14.50
2022-10-28T00:36:16.117Z,14.50
2022-10-28T00:38:45.657Z,14.50
2022-10-28T00:41:15.967Z,14.50
2022-10-28T00:43:47.809Z,14.50
2022-10-28T00:46:24.627Z,14.50
2022-10-28T00:48:56.512Z,14.50
2022-10-28T00:51:27.237Z,14.50
2022-10-28T00:53:57.109Z,14.50
2022-10-28T00:56:28.744Z,14.50
2022-10-28T00:59:01.545Z,14.50
2022-10-28T01:01:30.277Z,14.50
2022-10-28T01:03:58.932Z,14.50
2022-10-28T01:06:28.624Z,14.50
2022-10-28T01:08:59.915Z,14.50
2022-10-28T01:11:54.332Z,14.50
2022-10-28T01:14:37.940Z,14.50
2022-10-28T01:17:19.909Z,14.50
2022-10-28T01:20:29.615Z,14.50
2022-10-28T01:23:05.281Z,14.50
2022-10-28T01:25:59.005Z,14.50
2022-10-28T01:28:59.206Z,14.50
2022-10-28T01:31:37.324Z,14.50
2022-10-28T01:34:13.488Z,14.50
2022-10-28T01:36:49.772Z,14.40
2022-10-28T01:39:30.713Z,14.40
2022-10-28T01:42:06.860Z,14.50
2022-10-28T01:44:42.392Z,14.50
2022-10-28T01:47:15.367Z,14.50
2022-10-28T01:49:51.129Z,14.50
2022-10-28T01:52:24.273Z,14.50
2022-10-28T01:54:55.708Z,14.50
2022-10-28T01:57:26.002Z,14.40
2022-10-28T01:59:54.586Z,14.40
2022-10-28T02:02:24.114Z,14.40
2022-10-28T02:04:52.062Z,14.40
2022-10-28T02:07:20.353Z,14.30
2022-10-28T02:10:02.207Z,14.30
2022-10-28T02:12:32.710Z,14.30
2022-10-28T02:15:19.474Z,14.20
2022-10-28T02:18:03.145Z,14.20
2022-10-28T02:20:40.434Z,14.20
2022-10-28T02:23:18.599Z,14.20
2022-10-28T02:25:52.411Z,14.20
2022-10-28T02:28:25.949Z,14.10
2022-10-28T02:31:00.225Z,14.10
2022-10-28T02:33:30.371Z,14.10
2022-10-28T02:36:04.270Z,14.10
2022-10-28T02:38:35.913Z,14.10
2022-10-28T02:41:08.586Z,14.10
2022-10-28T02:43:39.253Z,14.10
2022-10-28T02:46:08.982Z,14.10
2022-10-28T02:48:41.759Z,14.20
2022-10-28T02:51:13.616Z,14.20
2022-10-28T02:53:51.657Z,14.20
2022-10-28T02:56:22.219Z,14.20
2022-10-28T02:58:50.628Z,14.20
2022-10-28T03:01:19.127Z,14.20
2022-10-28T03:03:48.596Z,14.30
2022-10-28T03:06:16.781Z,14.30
2022-10-28T03:08:46.102Z,14.40
2022-10-28T03:11:14.051Z,14.40
2022-10-28T03:13:42.284Z,14.40
2022-10-28T03:16:10.455Z,14.50
2022-10-28T03:18:38.488Z,14.50
2022-10-28T03:21:08.105Z,14.50
2022-10-28T03:23:36.127Z,14.50
2022-10-28T03:26:04.282Z,14.50
2022-10-28T03:28:32.451Z,14.50
2022-10-28T03:31:00.415Z,14.50
2022-10-28T03:33:28.515Z,14.50
2022-10-28T03:35:56.612Z,14.40
2022-10-28T03:38:25.979Z,14.50
2022-10-28T03:40:54.130Z,14.40
2022-10-28T03:43:22.254Z,14.40
2022-10-28T03:45:50.234Z,14.40
2022-10-28T03:48:18.329Z,14.40
2022-10-28T03:50:46.440Z,14.30
2022-10-28T03:53:14.451Z,14.30
2022-10-28T03:55:43.863Z,14.30
2022-10-28T03:58:12.035Z,14.30
2022-10-28T04:00:39.994Z,14.30
2022-10-28T04:03:07.950Z,14.30
2022-10-28T04:05:36.122Z,14.30
2022-10-28T04:08:04.179Z,14.30
2022-10-28T04:10:32.251Z,14.30
2022-10-28T04:13:02.940Z,14.30
2022-10-28T04:15:31.084Z,14.30
2022-10-28T04:17:59.239Z,14.30
2022-10-28T04:20:28.053Z,14.20
2022-10-28T04:22:57.262Z,14.20
2022-10-28T04:25:27.175Z,14.20
2022-10-28T04:27:55.836Z,14.20
2022-10-28T04:30:25.727Z,14.20
2022-10-28T04:32:53.750Z,14.20
2022-10-28T04:35:21.796Z,14.20
2022-10-28T04:37:49.990Z,14.20
2022-10-28T04:40:18.158Z,14.10
2022-10-28T04:42:46.112Z,14.10
2022-10-28T04:45:15.761Z,14.00
2022-10-28T04:47:45.223Z,14.00
2022-10-28T04:50:13.338Z,13.90
2022-10-28T04:52:41.552Z,13.80
2022-10-28T04:55:10.261Z,13.80
2022-10-28T04:57:38.329Z,13.70
2022-10-28T05:00:07.738Z,13.70
2022-10-28T05:02:35.767Z,13.60
2022-10-28T05:05:05.541Z,13.60
2022-10-28T05:07:33.717Z,13.60
2022-10-28T05:10:01.727Z,13.50
2022-10-28T05:12:29.772Z,13.50
2022-10-28T05:14:57.747Z,13.50
2022-10-28T05:17:25.809Z,13.50
2022-10-28T05:19:54.081Z,13.40
2022-10-28T05:22:23.742Z,13.40
2022-10-28T05:24:51.761Z,13.40
2022-10-28T05:27:19.733Z,13.30
2022-10-28T05:29:47.971Z,13.30
2022-10-28T05:32:15.971Z,13.20
2022-10-28T05:34:43.965Z,13.20
2022-10-28T05:37:12.602Z,13.30
2022-10-28T05:39:41.930Z,13.20
2022-10-28T05:42:10.185Z,13.20
2022-10-28T05:44:38.196Z,13.20
2022-10-28T05:47:06.210Z,13.20
2022-10-28T05:49:34.380Z,13.30
2022-10-28T05:52:02.526Z,13.30
2022-10-28T05:54:30.473Z,13.30
2022-10-28T05:56:59.996Z,13.30
2022-10-28T05:59:28.008Z,13.30
2022-10-28T06:01:56.067Z,13.30
2022-10-28T06:04:24.408Z,13.30
2022-10-28T06:06:55.838Z,13.30
2022-10-28T06:09:24.023Z,13.30
2022-10-28T06:11:50.463Z,13.20
2022-10-28T06:14:19.961Z,13.20
2022-10-28T06:16:47.932Z,13.20
2022-10-28T06:19:16.405Z,13.20
2022-10-28T06:21:44.386Z,13.20
2022-10-28T06:24:12.550Z,13.30
2022-10-28T06:26:40.576Z,13.30
2022-10-28T06:29:10.724Z,13.30
2022-10-28T06:31:40.735Z,13.30
2022-10-28T06:34:09.220Z,13.30
2022-10-28T06:36:37.393Z,13.40
2022-10-28T06:39:06.053Z,13.40
2022-10-28T06:41:34.287Z,13.50
2022-10-28T06:44:02.668Z,13.50
2022-10-28T06:46:31.024Z,13.60
2022-10-28T06:49:03.202Z,13.60
2022-10-28T06:51:32.058Z,13.70
2022-10-28T06:54:00.481Z,13.70
2022-10-28T06:56:28.518Z,13.80
2022-10-28T06:58:57.057Z,13.80
2022-10-28T07:01:25.157Z,13.90
2022-10-28T07:03:53.519Z,13.90
2022-10-28T07:06:22.888Z,14.00
2022-10-28T07:08:51.075Z,14.00
2022-10-28T07:11:19.216Z,14.00
2022-10-28T07:13:48.940Z,14.00
2022-10-28T07:16:17.226Z,14.00
2022-10-28T07:18:45.413Z,14.10
2022-10-28T07:21:14.344Z,14.10
2022-10-28T07:23:43.719Z,14.20
2022-10-28T07:26:11.782Z,14.20
2022-10-28T07:28:39.850Z,14.20
2022-10-28T07:31:07.902Z,14.30
2022-10-28T07:33:36.060Z,14.40
2022-10-28T07:36:05.067Z,14.50
2022-10-28T07:38:33.493Z,14.60
2022-10-28T07:41:06.908Z,14.60
2022-10-28T07:43:37.180Z,14.80
2022-10-28T07:46:06.039Z,14.90
2022-10-28T07:48:36.758Z,15.10
2022-10-28T07:51:06.683Z,15.20
2022-10-28T07:53:35.070Z,15.30
2022-10-28T07:56:09.758Z,15.40
2022-10-28T07:58:38.122Z,15.50
2022-10-28T08:01:08.038Z,15.50
2022-10-28T08:03:39.068Z,15.60
2022-10-28T08:06:09.735Z,15.80
2022-10-28T08:08:38.092Z,15.90
2022-10-28T08:11:19.325Z,16.00
2022-10-28T08:13:48.058Z,16.10
2022-10-28T08:16:16.130Z,16.40
2022-10-28T08:18:45.780Z,16.50
2022-10-28T08:21:15.087Z,16.80
2022-10-28T08:23:46.523Z,16.90
2022-10-28T08:26:17.309Z,17.10
2022-10-28T08:28:45.341Z,17.30
2022-10-28T08:31:13.549Z,17.70
2022-10-28T08:33:44.335Z,18.20
2022-10-28T08:36:14.374Z,18.50
2022-10-28T08:38:45.783Z,18.80
2022-10-28T08:41:25.673Z,19.20
2022-10-28T08:44:06.198Z,19.80
2022-10-28T08:46:54.003Z,20.30
2022-10-28T08:49:24.702Z,20.90
2022-10-28T08:51:57.128Z,21.30
2022-10-28T08:54:31.362Z,21.50
2022-10-28T08:57:04.016Z,21.90
2022-10-28T08:59:36.484Z,22.20
2022-10-28T09:02:15.202Z,22.40
2022-10-28T09:04:45.420Z,22.80
2022-10-28T09:07:18.395Z,23.20
2022-10-28T09:09:47.139Z,23.30
2022-10-28T09:12:28.787Z,23.60
2022-10-28T09:15:14.919Z,24.10
2022-10-28T09:17:52.877Z,24.50
2022-10-28T09:20:26.975Z,25.00
2022-10-28T09:22:57.892Z,25.50
2022-10-28T09:25:34.391Z,26.40
2022-10-28T09:28:16.524Z,27.30
2022-10-28T09:30:54.674Z,28.50
2022-10-28T09:33:44.045Z,29.50
2022-10-28T09:36:16.912Z,29.90
2022-10-28T09:38:45.960Z,30.70
2022-10-28T09:41:19.355Z,30.90
2022-10-28T09:43:53.857Z,31.00
2022-10-28T09:46:24.011Z,31.10
2022-10-28T09:48:56.116Z,30.70
2022-10-28T09:51:32.245Z,31.10
2022-10-28T09:54:01.985Z,31.90
2022-10-28T09:56:31.440Z,32.80
2022-10-28T09:59:03.620Z,33.40
2022-10-28T10:01:34.643Z,34.60
2022-10-28T10:04:03.584Z,36.10
2022-10-28T10:06:36.245Z,37.70
2022-10-28T10:09:04.987Z,38.70
2022-10-28T10:11:39.785Z,38.10
2022-10-28T10:14:12.949Z,39.00
2022-10-28T10:16:45.925Z,40.40
2022-10-28T10:19:14.072Z,41.60
2022-10-28T10:21:45.149Z,41.10
2022-10-28T10:24:36.208Z,39.80
2022-10-28T10:27:15.289Z,39.70
2022-10-28T10:29:48.495Z,39.20
2022-10-28T10:32:17.696Z,39.20
2022-10-28T10:34:51.256Z,39.30
2022-10-28T10:37:21.663Z,40.50
2022-10-28T10:40:03.507Z,40.30
2022-10-28T10:42:31.546Z,40.50
2022-10-28T10:45:04.371Z,38.90
2022-10-28T10:47:32.428Z,38.50
2022-10-28T10:50:24.116Z,37.70
2022-10-28T10:52:58.110Z,36.80
2022-10-28T10:55:35.516Z,36.30
2022-10-28T10:58:04.776Z,35.40
2022-10-28T11:00:37.831Z,35.40
2022-10-28T11:03:08.381Z,35.80
2022-10-28T11:05:38.486Z,36.20
2022-10-28T11:08:07.777Z,36.00
2022-10-28T11:10:36.272Z,36.60
2022-10-28T11:13:07.104Z,36.30
2022-10-28T11:15:36.511Z,36.70
2022-10-28T11:18:20.592Z,36.80
2022-10-28T11:20:56.061Z,36.50
2022-10-28T11:23:44.504Z,36.40
2022-10-28T11:26:14.905Z,35.80
2022-10-28T11:28:58.813Z,36.20
2022-10-28T11:31:50.226Z,36.70
2022-10-28T11:34:31.316Z,36.90
2022-10-28T11:37:09.935Z,37.60
2022-10-28T11:39:47.838Z,38.40
2022-10-28T11:42:27.380Z,39.10
2022-10-28T11:45:00.483Z,39.50
2022-10-28T11:47:50.593Z,40.50
2022-10-28T11:50:36.463Z,41.70
2022-10-28T11:53:25.394Z,42.90
2022-10-28T11:56:04.090Z,43.80
2022-10-28T11:58:41.061Z,44.30
2022-10-28T12:01:18.128Z,44.20
2022-10-28T12:04:17.398Z,43.10
2022-10-28T12:07:10.809Z,42.30
2022-10-28T12:09:53.094Z,42.40
2022-10-28T12:12:30.199Z,42.30
2022-10-28T12:15:05.051Z,42.20
2022-10-28T12:17:39.033Z,41.20
2022-10-28T12:20:18.045Z,39.90
2022-10-28T12:22:50.099Z,39.20
2022-10-28T12:25:23.902Z,38.70
2022-10-28T12:27:56.482Z,38.00
2022-10-28T12:30:28.290Z,36.40
2022-10-28T12:33:00.124Z,35.20
2022-10-28T12:35:33.773Z,34.40
2022-10-28T12:38:08.252Z,33.40
2022-10-28T12:40:42.661Z,31.90
2022-10-28T12:43:17.287Z,30.50
2022-10-28T12:45:49.294Z,29.80
2022-10-28T12:48:23.370Z,29.00
2022-10-28T12:50:53.981Z,28.20
2022-10-28T12:53:31.925Z,28.00
2022-10-28T12:56:01.870Z,27.60
2022-10-28T12:58:34.108Z,27.40
2022-10-28T13:01:05.249Z,26.90
2022-10-28T13:03:33.460Z,26.40
2022-10-28T13:06:26.732Z,26.10
2022-10-28T13:09:24.426Z,25.80
2022-10-28T13:12:21.830Z,25.30
2022-10-28T13:15:16.833Z,25.20
2022-10-28T13:17:54.066Z,25.00
2022-10-28T13:20:31.049Z,24.80
2022-10-28T13:23:12.381Z,24.50
2022-10-28T13:26:00.474Z,24.40
2022-10-28T13:28:32.576Z,24.20
2022-10-28T13:31:03.288Z,24.10
2022-10-28T13:33:34.236Z,24.00
2022-10-28T13:36:12.833Z,23.90
2022-10-28T13:38:42.491Z,23.80
2022-10-28T13:41:26.975Z,23.70
2022-10-28T13:44:15.010Z,23.50
2022-10-28T13:47:19.550Z,23.40
2022-10-28T13:50:20.084Z,23.30
2022-10-28T13:53:08.746Z,23.20
2022-10-28T13:55:46.042Z,23.10
2022-10-28T13:58:23.475Z,23.00
2022-10-28T14:00:53.561Z,23.00
2022-10-28T14:03:25.310Z,23.00
2022-10-28T14:05:59.070Z,23.00
2022-10-28T14:08:30.990Z,22.90
2022-10-28T14:11:08.492Z,22.90
2022-10-28T14:13:39.798Z,22.80
2022-10-28T14:16:25.331Z,22.80
2022-10-28T14:18:57.418Z,22.80
2022-10-28T14:21:25.725Z,22.70
2022-10-28T14:24:11.041Z,22.70
2022-10-28T14:27:12.617Z,22.60
2022-10-28T14:29:47.505Z,22.60
2022-10-28T14:32:41.136Z,22.50
2022-10-28T14:35:26.709Z,22.60
2022-10-28T14:38:39.717Z,22.40
2022-10-28T14:41:26.395Z,22.40
2022-10-28T14:44:11.483Z,22.40
2022-10-28T14:46:57.657Z,22.30
2022-10-28T14:49:28.469Z,22.20
2022-10-28T14:51:58.224Z,22.00
2022-10-28T14:54:39.688Z,21.90
2022-10-28T14:57:09.554Z,21.90
2022-10-28T14:59:39.203Z,21.80
2022-10-28T15:02:14.755Z,21.80
2022-10-28T15:04:44.913Z,21.70
2022-10-28T15:07:15.987Z,21.60
2022-10-28T15:09:45.390Z,21.60
2022-10-28T15:12:15.558Z,21.40
2022-10-28T15:14:47.353Z,21.30
2022-10-28T15:17:19.280Z,21.20
2022-10-28T15:19:48.797Z,21.10
2022-10-28T15:22:20.166Z,21.00
2022-10-28T15:24:59.460Z,20.90
2022-10-28T15:27:29.859Z,20.80
2022-10-28T15:29:58.194Z,20.80
2022-10-28T15:32:33.047Z,20.70
2022-10-28T15:35:21.303Z,20.60
2022-10-28T15:37:49.446Z,20.50
2022-10-28T15:40:22.974Z,20.40
2022-10-28T15:42:54.755Z,20.30
2022-10-28T15:45:27.364Z,20.30
2022-10-28T15:47:58.178Z,20.10
2022-10-28T15:50:34.466Z,20.00
2022-10-28T15:53:22.274Z,20.00
2022-10-28T15:56:10.289Z,19.90
2022-10-28T15:58:40.596Z,19.80
2022-10-28T16:01:11.513Z,19.70
2022-10-28T16:03:46.149Z,19.50
2022-10-28T16:06:24.488Z,19.50
2022-10-28T16:09:07.632Z,19.40
2022-10-28T16:11:39.333Z,19.30
2022-10-28T16:14:24.674Z,19.20
2022-10-28T16:16:52.914Z,19.20
2022-10-28T16:19:29.120Z,19.10
2022-10-28T16:21:57.489Z,19.00
2022-10-28T16:24:44.172Z,19.00
2022-10-28T16:27:20.807Z,19.00
2022-10-28T16:29:49.431Z,19.00
2022-10-28T16:32:19.113Z,19.00
2022-10-28T16:34:48.637Z,19.00
2022-10-28T16:37:22.930Z,19.00
2022-10-28T16:39:50.996Z,18.90
2022-10-28T16:42:20.288Z,18.90
2022-10-28T16:44:48.540Z,18.80
2022-10-28T16:47:18.839Z,18.80
2022-10-28T16:49:54.056Z,18.80
2022-10-28T16:52:28.000Z,18.70
2022-10-28T16:54:56.396Z,18.70
2022-10-28T16:57:25.167Z,18.60
2022-10-28T16:59:53.566Z,18.60
2022-10-28T17:02:26.222Z,18.60
2022-10-28T17:04:56.121Z,18.60
2022-10-28T17:07:24.477Z,18.60
2022-10-28T17:09:52.982Z,18.60
2022-10-28T17:15:58.172Z,18.60
2022-10-28T17:18:26.310Z,18.60
2022-10-28T17:21:01.867Z,18.50
2022-10-28T17:23:30.584Z,18.50
2022-10-28T17:25:59.197Z,18.50
2022-10-28T17:28:27.285Z,18.50
2022-10-28T17:31:02.225Z,18.50
2022-10-28T17:33:30.338Z,18.50
2022-10-28T17:36:03.202Z,18.50
2022-10-28T17:38:31.750Z,18.50
2022-10-28T17:40:59.739Z,18.50
2022-10-28T17:43:28.645Z,18.40
2022-10-28T17:46:04.570Z,18.40
2022-10-28T17:48:32.686Z,18.40
2022-10-28T17:51:02.044Z,18.40
2022-10-28T17:53:30.484Z,18.50
2022-10-28T17:55:59.067Z,18.50
2022-10-28T17:58:27.467Z,18.50
2022-10-28T18:00:59.785Z,18.50
2022-10-28T18:03:32.746Z,18.50
2022-10-28T18:06:07.090Z,18.60
2022-10-28T18:09:04.834Z,18.60
2022-10-28T18:11:35.368Z,18.60
2022-10-28T18:14:05.512Z,18.60
2022-10-28T18:17:09.327Z,18.60
2022-10-28T18:19:37.394Z,18.70
2022-10-28T18:22:06.970Z,18.60
2022-10-28T18:24:35.079Z,18.60
2022-10-28T18:27:03.157Z,18.50
2022-10-28T18:29:31.148Z,18.50
2022-10-28T18:32:00.658Z,18.40
2022-10-28T18:34:28.849Z,18.30
2022-10-28T18:36:56.874Z,18.30
2022-10-28T18:39:26.575Z,18.20
2022-10-28T18:41:54.635Z,18.30
2022-10-28T18:44:27.109Z,18.20
2022-10-28T18:46:55.161Z,18.20
2022-10-28T18:49:23.399Z,18.30
2022-10-28T18:51:51.521Z,18.20
2022-10-28T18:54:19.595Z,18.20
2022-10-28T18:56:50.532Z,18.20
2022-10-28T18:59:20.591Z,18.20
2022-10-28T19:01:48.654Z,18.20
2022-10-28T19:04:16.743Z,18.20
2022-10-28T19:06:44.915Z,18.20
2022-10-28T19:09:12.946Z,18.20
2022-10-28T19:11:41.020Z,18.20
2022-10-28T19:14:11.140Z,18.20
2022-10-28T19:16:39.218Z,18.20
2022-10-28T19:19:07.302Z,18.20
2022-10-28T19:21:35.787Z,18.20
2022-10-28T19:24:05.247Z,18.10
2022-10-28T19:26:34.819Z,18.10
2022-10-28T19:29:04.678Z,18.10
2022-10-28T19:31:36.868Z,18.00
2022-10-28T19:34:05.756Z,18.00
2022-10-28T19:36:33.792Z,17.90
2022-10-28T19:39:02.003Z,17.90
2022-10-28T19:41:30.956Z,17.90
2022-10-28T19:44:00.426Z,17.90
2022-10-28T19:46:29.736Z,17.80
2022-10-28T19:49:00.569Z,17.80
2022-10-28T19:51:30.306Z,17.70
2022-10-28T19:54:00.113Z,17.80
2022-10-28T19:56:29.700Z,17.70
2022-10-28T19:58:59.426Z,17.70
2022-10-28T20:01:31.262Z,17.70
2022-10-28T20:04:00.881Z,17.70
2022-10-28T20:06:32.822Z,17.60
2022-10-28T20:09:00.965Z,17.60
2022-10-28T20:11:31.663Z,17.60
2022-10-28T20:14:01.941Z,17.50
2022-10-28T20:16:30.749Z,17.60
2022-10-28T20:19:00.719Z,17.50
2022-10-28T20:21:30.062Z,17.60
2022-10-28T20:23:59.215Z,17.70
2022-10-28T20:26:29.157Z,17.80
2022-10-28T20:28:57.951Z,17.90
2022-10-28T20:31:27.396Z,17.90
2022-10-28T20:33:57.947Z,17.90
2022-10-28T20:36:29.842Z,17.90
2022-10-28T20:38:59.500Z,17.90
2022-10-28T20:41:29.821Z,17.80
2022-10-28T20:43:58.649Z,17.70
2022-10-28T20:46:27.805Z,17.60
2022-10-28T20:48:56.771Z,17.50
2022-10-28T20:51:27.610Z,17.50
2022-10-28T20:53:56.276Z,17.40
2022-10-28T20:56:26.630Z,17.30
2022-10-28T20:58:55.770Z,17.30
2022-10-28T21:01:26.115Z,17.30
2022-10-28T21:03:55.737Z,17.30
2022-10-28T21:06:24.353Z,17.30
2022-10-28T21:08:54.605Z,17.40
2022-10-28T21:11:23.659Z,17.40
2022-10-28T21:13:52.952Z,17.50
2022-10-28T21:16:22.205Z,17.50
2022-10-28T21:18:50.790Z,17.50
2022-10-28T21:21:20.143Z,17.50
2022-10-28T21:23:48.136Z,17.50
2022-10-28T21:26:17.475Z,17.40
2022-10-28T21:28:49.330Z,17.40
2022-10-28T21:31:18.105Z,17.30
2022-10-28T21:33:46.329Z,17.20
2022-10-28T21:36:15.902Z,17.10
2022-10-28T21:38:44.379Z,17.10
2022-10-28T21:41:13.964Z,17.00
2022-10-28T21:43:45.357Z,16.80
2022-10-28T21:46:13.433Z,16.80
2022-10-28T21:48:41.570Z,16.70
2022-10-28T21:51:14.716Z,16.60
2022-10-28T21:53:44.531Z,16.50
2022-10-28T21:56:17.036Z,16.40
2022-10-28T21:58:48.161Z,16.30
2022-10-28T22:01:18.455Z,16.20
2022-10-28T22:03:46.707Z,16.20
2022-10-28T22:06:15.134Z,16.10
2022-10-28T22:08:43.391Z,16.00
2022-10-28T22:11:14.257Z,16.00
2022-10-28T22:13:42.426Z,15.90
2022-10-28T22:16:14.212Z,15.90
2022-10-28T22:18:42.721Z,15.80
2022-10-28T22:21:13.316Z,15.80
2022-10-28T22:23:41.930Z,15.80
2022-10-28T22:26:11.858Z,15.80
2022-10-28T22:28:40.497Z,15.70
2022-10-28T22:31:11.239Z,15.70
2022-10-28T22:33:41.419Z,15.70
2022-10-28T22:36:11.865Z,15.60
2022-10-28T22:38:40.509Z,15.60
2022-10-28T22:41:12.555Z,15.60
2022-10-28T22:43:41.530Z,15.60
2022-10-28T22:46:10.815Z,15.60
2022-10-28T22:48:41.253Z,15.50
2022-10-28T22:51:10.411Z,15.60
2022-10-28T22:53:39.423Z,15.50
2022-10-28T22:56:09.346Z,15.40
2022-10-28T22:58:38.007Z,15.40
2022-10-28T23:01:07.431Z,15.30
2022-10-28T23:03:41.559Z,15.20
2022-10-28T23:06:10.516Z,15.10
2022-10-28T23:08:38.872Z,15.00
2022-10-28T23:11:07.956Z,15.00
2022-10-28T23:16:07.023Z,14.90
2022-10-28T23:18:35.440Z,14.90
2022-10-28T23:21:10.542Z,14.80
2022-10-28T23:23:39.268Z,14.70
2022-10-28T23:26:08.050Z,14.70
2022-10-28T23:28:36.067Z,14.60
2022-10-28T23:31:06.019Z,14.60
2022-10-28T23:33:35.712Z,14.70
2022-10-28T23:36:05.134Z,14.70
2022-10-28T23:38:34.935Z,14.80
2022-10-28T23:41:04.379Z,14.90
2022-10-28T23:43:33.501Z,14.90
2022-10-28T23:46:02.545Z,14.90
2022-10-28T23:48:30.969Z,14.90
2022-10-28T23:50:59.292Z,14.90
2022-10-28T23:55:58.297Z,14.90
2022-10-28T23:58:26.402Z,14.90
